sensor_id;sensor_type;location;lat;lon;timestamp;P1;durP1;ratioP1;P2;durP2;ratioP2
5923;SDS011;2987;50.884;14.818;2022-07-03T00:01:34;8.17;;;7.37;;
5923;SDS011;2987;50.884;14.818;2022-07-03T00:04:01;11.27;;;8.60;;
5923;SDS011;2987;50.884;14.818;2022-07-03T00:06:27;10.43;;;8.67;;
5923;SDS011;2987;50.884;14.818;2022-07-03T00:08:56;8.60;;;7.90;;
5923;SDS011;2987;50.884;14.818;2022-07-03T00:11:24;8.97;;;8.10;;
5923;SDS011;2987;50.884;14.818;2022-07-03T00:13:50;8.87;;;7.97;;
5923;SDS011;2987;50.884;14.818;2022-07-03T00:16:17;8.20;;;7.50;;
5923;SDS011;2987;50.884;14.818;2022-07-03T00:18:44;8.57;;;7.73;;
5923;SDS011;2987;50.884;14.818;2022-07-03T00:21:11;9.43;;;7.87;;
5923;SDS011;2987;50.884;14.818;2022-07-03T00:23:46;10.43;;;7.30;;
5923;SDS011;2987;50.884;14.818;2022-07-03T00:26:33;7.67;;;6.80;;
5923;SDS011;2987;50.884;14.818;2022-07-03T00:29:03;11.90;;;6.93;;
5923;SDS011;2987;50.884;14.818;2022-07-03T00:31:32;9.47;;;6.97;;
5923;SDS011;2987;50.884;14.818;2022-07-03T00:34:00;10.37;;;8.37;;
5923;SDS011;2987;50.884;14.818;2022-07-03T00:36:29;8.37;;;7.57;;
5923;SDS011;2987;50.884;14.818;2022-07-03T00:39:00;10.07;;;7.17;;
5923;SDS011;2987;50.884;14.818;2022-07-03T00:41:29;9.00;;;8.10;;
5923;SDS011;2987;50.884;14.818;2022-07-03T00:43:58;9.17;;;7.83;;
5923;SDS011;2987;50.884;14.818;2022-07-03T00:46:30;11.20;;;7.60;;
5923;SDS011;2987;50.884;14.818;2022-07-03T00:48:58;9.33;;;8.37;;
5923;SDS011;2987;50.884;14.818;2022-07-03T00:51:26;9.30;;;8.50;;
5923;SDS011;2987;50.884;14.818;2022-07-03T00:53:55;9.43;;;8.43;;
5923;SDS011;2987;50.884;14.818;2022-07-03T00:56:26;9.43;;;8.53;;
5923;SDS011;2987;50.884;14.818;2022-07-03T00:58:54;10.23;;;9.23;;
5923;SDS011;2987;50.884;14.818;2022-07-03T01:01:24;12.07;;;9.10;;
5923;SDS011;2987;50.884;14.818;2022-07-03T01:03:58;10.30;;;8.73;;
5923;SDS011;2987;50.884;14.818;2022-07-03T01:14:54;9.93;;;8.93;;
5923;SDS011;2987;50.884;14.818;2022-07-03T01:22:29;9.30;;;7.80;;
5923;SDS011;2987;50.884;14.818;2022-07-03T01:28:07;10.97;;;8.40;;
5923;SDS011;2987;50.884;14.818;2022-07-03T01:35:47;9.90;;;8.07;;
5923;SDS011;2987;50.884;14.818;2022-07-03T01:38:24;13.60;;;7.97;;
5923;SDS011;2987;50.884;14.818;2022-07-03T01:40:54;12.63;;;9.27;;
5923;SDS011;2987;50.884;14.818;2022-07-03T01:43:25;8.47;;;7.73;;
5923;SDS011;2987;50.884;14.818;2022-07-03T01:45:56;9.60;;;8.53;;
5923;SDS011;2987;50.884;14.818;2022-07-03T01:48:24;10.03;;;7.93;;
5923;SDS011;2987;50.884;14.818;2022-07-03T01:50:52;9.27;;;8.03;;
5923;SDS011;2987;50.884;14.818;2022-07-03T01:53:20;8.97;;;8.17;;
5923;SDS011;2987;50.884;14.818;2022-07-03T01:55:51;14.67;;;9.03;;
5923;SDS011;2987;50.884;14.818;2022-07-03T01:58:21;10.23;;;9.17;;
5923;SDS011;2987;50.884;14.818;2022-07-03T02:03:54;10.53;;;8.93;;
5923;SDS011;2987;50.884;14.818;2022-07-03T02:09:24;10.20;;;8.90;;
5923;SDS011;2987;50.884;14.818;2022-07-03T02:14:30;14.43;;;8.80;;
5923;SDS011;2987;50.884;14.818;2022-07-03T02:17:09;13.03;;;8.30;;
5923;SDS011;2987;50.884;14.818;2022-07-03T02:19:59;9.17;;;8.03;;
5923;SDS011;2987;50.884;14.818;2022-07-03T02:22:31;11.63;;;8.70;;
5923;SDS011;2987;50.884;14.818;2022-07-03T02:25:03;10.43;;;8.40;;
5923;SDS011;2987;50.884;14.818;2022-07-03T02:27:35;10.53;;;8.03;;
5923;SDS011;2987;50.884;14.818;2022-07-03T02:30:05;11.07;;;8.73;;
5923;SDS011;2987;50.884;14.818;2022-07-03T02:32:34;14.77;;;8.73;;
5923;SDS011;2987;50.884;14.818;2022-07-03T02:35:05;9.50;;;8.40;;
5923;SDS011;2987;50.884;14.818;2022-07-03T02:37:38;10.93;;;9.13;;
5923;SDS011;2987;50.884;14.818;2022-07-03T02:40:17;9.53;;;8.63;;
5923;SDS011;2987;50.884;14.818;2022-07-03T03:05:07;9.03;;;8.23;;
5923;SDS011;2987;50.884;14.818;2022-07-03T03:10:14;10.43;;;9.43;;
5923;SDS011;2987;50.884;14.818;2022-07-03T03:15:13;10.07;;;9.10;;
5923;SDS011;2987;50.884;14.818;2022-07-03T03:17:41;10.43;;;9.03;;
5923;SDS011;2987;50.884;14.818;2022-07-03T03:20:13;9.10;;;8.30;;
5923;SDS011;2987;50.884;14.818;2022-07-03T03:25:50;9.70;;;8.43;;
5923;SDS011;2987;50.884;14.818;2022-07-03T03:28:18;11.30;;;8.03;;
5923;SDS011;2987;50.884;14.818;2022-07-03T03:35:38;11.23;;;8.13;;
5923;SDS011;2987;50.884;14.818;2022-07-03T03:38:05;11.60;;;8.50;;
5923;SDS011;2987;50.884;14.818;2022-07-03T03:40:32;13.93;;;8.77;;
5923;SDS011;2987;50.884;14.818;2022-07-03T03:42:59;13.63;;;8.97;;
5923;SDS011;2987;50.884;14.818;2022-07-03T03:45:32;9.43;;;8.33;;
5923;SDS011;2987;50.884;14.818;2022-07-03T03:47:59;9.93;;;8.23;;
5923;SDS011;2987;50.884;14.818;2022-07-03T03:50:26;9.40;;;8.03;;
5923;SDS011;2987;50.884;14.818;2022-07-03T03:52:52;13.07;;;8.43;;
5923;SDS011;2987;50.884;14.818;2022-07-03T03:55:19;13.43;;;8.10;;
5923;SDS011;2987;50.884;14.818;2022-07-03T03:57:45;9.07;;;7.33;;
5923;SDS011;2987;50.884;14.818;2022-07-03T04:00:12;10.27;;;8.80;;
5923;SDS011;2987;50.884;14.818;2022-07-03T04:02:39;9.23;;;7.77;;
5923;SDS011;2987;50.884;14.818;2022-07-03T04:05:05;9.87;;;7.57;;
5923;SDS011;2987;50.884;14.818;2022-07-03T04:07:32;13.90;;;7.97;;
5923;SDS011;2987;50.884;14.818;2022-07-03T04:09:58;11.17;;;7.43;;
5923;SDS011;2987;50.884;14.818;2022-07-03T04:12:25;8.57;;;7.77;;
5923;SDS011;2987;50.884;14.818;2022-07-03T04:14:51;9.10;;;7.87;;
5923;SDS011;2987;50.884;14.818;2022-07-03T04:17:17;10.83;;;8.13;;
5923;SDS011;2987;50.884;14.818;2022-07-03T04:19:44;10.50;;;7.60;;
5923;SDS011;2987;50.884;14.818;2022-07-03T04:22:10;8.00;;;7.30;;
5923;SDS011;2987;50.884;14.818;2022-07-03T04:24:36;9.20;;;7.83;;
5923;SDS011;2987;50.884;14.818;2022-07-03T04:27:03;9.67;;;8.73;;
5923;SDS011;2987;50.884;14.818;2022-07-03T04:29:29;10.20;;;9.10;;
5923;SDS011;2987;50.884;14.818;2022-07-03T04:31:56;16.63;;;7.90;;
5923;SDS011;2987;50.884;14.818;2022-07-03T04:34:22;7.90;;;6.97;;
5923;SDS011;2987;50.884;14.818;2022-07-03T04:36:48;6.63;;;5.67;;
5923;SDS011;2987;50.884;14.818;2022-07-03T04:39:15;5.67;;;5.10;;
5923;SDS011;2987;50.884;14.818;2022-07-03T04:41:41;5.43;;;4.60;;
5923;SDS011;2987;50.884;14.818;2022-07-03T04:44:07;6.50;;;4.30;;
5923;SDS011;2987;50.884;14.818;2022-07-03T04:46:33;7.73;;;4.70;;
5923;SDS011;2987;50.884;14.818;2022-07-03T04:49:00;4.53;;;4.13;;
5923;SDS011;2987;50.884;14.818;2022-07-03T04:51:26;4.47;;;4.07;;
5923;SDS011;2987;50.884;14.818;2022-07-03T04:53:52;5.30;;;4.27;;
5923;SDS011;2987;50.884;14.818;2022-07-03T04:56:19;5.17;;;4.07;;
5923;SDS011;2987;50.884;14.818;2022-07-03T04:58:45;5.47;;;4.30;;
5923;SDS011;2987;50.884;14.818;2022-07-03T05:01:11;8.67;;;4.43;;
5923;SDS011;2987;50.884;14.818;2022-07-03T05:03:38;5.10;;;4.57;;
5923;SDS011;2987;50.884;14.818;2022-07-03T05:06:04;4.57;;;3.97;;
5923;SDS011;2987;50.884;14.818;2022-07-03T05:08:30;4.37;;;4.07;;
5923;SDS011;2987;50.884;14.818;2022-07-03T05:10:57;4.20;;;3.80;;
5923;SDS011;2987;50.884;14.818;2022-07-03T05:13:25;4.60;;;4.20;;
5923;SDS011;2987;50.884;14.818;2022-07-03T05:15:51;5.30;;;3.80;;
5923;SDS011;2987;50.884;14.818;2022-07-03T05:18:17;4.47;;;3.80;;
5923;SDS011;2987;50.884;14.818;2022-07-03T05:20:52;5.47;;;3.63;;
5923;SDS011;2987;50.884;14.818;2022-07-03T05:23:17;4.53;;;3.63;;
5923;SDS011;2987;50.884;14.818;2022-07-03T05:25:44;5.07;;;4.13;;
5923;SDS011;2987;50.884;14.818;2022-07-03T05:28:11;5.03;;;3.87;;
5923;SDS011;2987;50.884;14.818;2022-07-03T05:30:38;3.90;;;3.43;;
5923;SDS011;2987;50.884;14.818;2022-07-03T05:33:04;4.37;;;3.63;;
5923;SDS011;2987;50.884;14.818;2022-07-03T05:35:30;4.00;;;3.67;;
5923;SDS011;2987;50.884;14.818;2022-07-03T05:37:56;4.50;;;3.83;;
5923;SDS011;2987;50.884;14.818;2022-07-03T05:40:23;4.00;;;3.63;;
5923;SDS011;2987;50.884;14.818;2022-07-03T05:42:49;4.43;;;3.77;;
5923;SDS011;2987;50.884;14.818;2022-07-03T05:45:15;6.10;;;3.40;;
5923;SDS011;2987;50.884;14.818;2022-07-03T05:47:42;4.77;;;4.00;;
5923;SDS011;2987;50.884;14.818;2022-07-03T05:50:08;4.03;;;3.30;;
5923;SDS011;2987;50.884;14.818;2022-07-03T05:52:36;4.83;;;3.40;;
5923;SDS011;2987;50.884;14.818;2022-07-03T05:55:03;4.77;;;3.97;;
5923;SDS011;2987;50.884;14.818;2022-07-03T05:57:29;4.20;;;3.60;;
5923;SDS011;2987;50.884;14.818;2022-07-03T05:59:55;3.07;;;2.83;;
5923;SDS011;2987;50.884;14.818;2022-07-03T06:02:22;2.90;;;2.47;;
5923;SDS011;2987;50.884;14.818;2022-07-03T06:04:55;2.90;;;2.70;;
5923;SDS011;2987;50.884;14.818;2022-07-03T06:07:21;3.47;;;2.60;;
5923;SDS011;2987;50.884;14.818;2022-07-03T06:09:48;4.50;;;2.80;;
5923;SDS011;2987;50.884;14.818;2022-07-03T06:12:14;7.00;;;2.70;;
5923;SDS011;2987;50.884;14.818;2022-07-03T06:14:41;6.43;;;2.40;;
5923;SDS011;2987;50.884;14.818;2022-07-03T06:17:07;2.57;;;2.20;;
5923;SDS011;2987;50.884;14.818;2022-07-03T06:19:33;2.50;;;2.30;;
5923;SDS011;2987;50.884;14.818;2022-07-03T06:22:00;2.60;;;2.37;;
5923;SDS011;2987;50.884;14.818;2022-07-03T06:24:27;3.80;;;1.83;;
5923;SDS011;2987;50.884;14.818;2022-07-03T06:26:53;2.63;;;1.90;;
5923;SDS011;2987;50.884;14.818;2022-07-03T06:29:19;2.27;;;1.90;;
5923;SDS011;2987;50.884;14.818;2022-07-03T06:31:49;2.07;;;1.70;;
5923;SDS011;2987;50.884;14.818;2022-07-03T06:34:16;1.73;;;1.60;;
5923;SDS011;2987;50.884;14.818;2022-07-03T06:36:42;3.33;;;1.60;;
5923;SDS011;2987;50.884;14.818;2022-07-03T06:39:08;2.53;;;1.70;;
5923;SDS011;2987;50.884;14.818;2022-07-03T06:41:33;2.10;;;1.80;;
5923;SDS011;2987;50.884;14.818;2022-07-03T06:43:59;2.73;;;1.53;;
5923;SDS011;2987;50.884;14.818;2022-07-03T06:46:32;1.90;;;1.50;;
5923;SDS011;2987;50.884;14.818;2022-07-03T06:48:58;3.10;;;1.60;;
5923;SDS011;2987;50.884;14.818;2022-07-03T06:51:24;2.03;;;1.40;;
5923;SDS011;2987;50.884;14.818;2022-07-03T06:53:51;2.37;;;1.23;;
5923;SDS011;2987;50.884;14.818;2022-07-03T06:56:17;1.33;;;1.23;;
5923;SDS011;2987;50.884;14.818;2022-07-03T06:58:43;1.57;;;1.10;;
5923;SDS011;2987;50.884;14.818;2022-07-03T07:01:09;1.30;;;1.20;;
5923;SDS011;2987;50.884;14.818;2022-07-03T07:03:36;1.40;;;1.30;;
5923;SDS011;2987;50.884;14.818;2022-07-03T07:06:02;4.00;;;1.57;;
5923;SDS011;2987;50.884;14.818;2022-07-03T07:08:28;1.83;;;1.53;;
5923;SDS011;2987;50.884;14.818;2022-07-03T07:10:55;4.20;;;1.20;;
5923;SDS011;2987;50.884;14.818;2022-07-03T07:13:28;2.00;;;1.40;;
5923;SDS011;2987;50.884;14.818;2022-07-03T07:15:54;1.20;;;1.13;;
5923;SDS011;2987;50.884;14.818;2022-07-03T07:18:20;2.10;;;1.47;;
5923;SDS011;2987;50.884;14.818;2022-07-03T07:20:46;2.50;;;1.10;;
5923;SDS011;2987;50.884;14.818;2022-07-03T07:23:12;3.07;;;1.30;;
5923;SDS011;2987;50.884;14.818;2022-07-03T07:25:39;1.40;;;1.30;;
5923;SDS011;2987;50.884;14.818;2022-07-03T07:28:09;2.40;;;1.27;;
5923;SDS011;2987;50.884;14.818;2022-07-03T07:30:36;2.67;;;1.30;;
5923;SDS011;2987;50.884;14.818;2022-07-03T07:33:05;3.33;;;1.23;;
5923;SDS011;2987;50.884;14.818;2022-07-03T07:35:32;2.30;;;1.10;;
5923;SDS011;2987;50.884;14.818;2022-07-03T07:37:58;1.77;;;1.20;;
5923;SDS011;2987;50.884;14.818;2022-07-03T07:40:25;1.57;;;1.33;;
5923;SDS011;2987;50.884;14.818;2022-07-03T07:42:51;3.27;;;1.20;;
5923;SDS011;2987;50.884;14.818;2022-07-03T07:45:17;3.00;;;1.57;;
5923;SDS011;2987;50.884;14.818;2022-07-03T07:47:51;1.20;;;1.10;;
5923;SDS011;2987;50.884;14.818;2022-07-03T07:50:17;4.10;;;1.40;;
5923;SDS011;2987;50.884;14.818;2022-07-03T07:52:43;5.50;;;1.30;;
5923;SDS011;2987;50.884;14.818;2022-07-03T07:55:15;2.90;;;1.20;;
5923;SDS011;2987;50.884;14.818;2022-07-03T07:57:41;3.27;;;1.40;;
5923;SDS011;2987;50.884;14.818;2022-07-03T08:00:10;3.57;;;1.33;;
5923;SDS011;2987;50.884;14.818;2022-07-03T08:02:39;3.27;;;1.53;;
5923;SDS011;2987;50.884;14.818;2022-07-03T08:05:26;1.30;;;1.20;;
5923;SDS011;2987;50.884;14.818;2022-07-03T08:08:10;5.10;;;1.40;;
5923;SDS011;2987;50.884;14.818;2022-07-03T08:10:39;2.67;;;1.27;;
5923;SDS011;2987;50.884;14.818;2022-07-03T08:13:15;1.63;;;1.40;;
5923;SDS011;2987;50.884;14.818;2022-07-03T08:15:43;1.40;;;1.20;;
5923;SDS011;2987;50.884;14.818;2022-07-03T08:18:12;3.13;;;1.30;;
5923;SDS011;2987;50.884;14.818;2022-07-03T08:20:39;2.77;;;1.27;;
5923;SDS011;2987;50.884;14.818;2022-07-03T08:23:06;1.37;;;1.13;;
5923;SDS011;2987;50.884;14.818;2022-07-03T08:25:32;1.57;;;1.40;;
5923;SDS011;2987;50.884;14.818;2022-07-03T08:27:58;2.20;;;1.30;;
5923;SDS011;2987;50.884;14.818;2022-07-03T08:30:24;1.97;;;0.93;;
5923;SDS011;2987;50.884;14.818;2022-07-03T08:32:54;1.63;;;1.30;;
5923;SDS011;2987;50.884;14.818;2022-07-03T08:35:23;7.67;;;1.53;;
5923;SDS011;2987;50.884;14.818;2022-07-03T08:37:49;2.07;;;1.40;;
5923;SDS011;2987;50.884;14.818;2022-07-03T08:40:17;2.77;;;1.40;;
5923;SDS011;2987;50.884;14.818;2022-07-03T08:42:45;2.77;;;1.50;;
5923;SDS011;2987;50.884;14.818;2022-07-03T08:45:14;1.57;;;1.47;;
5923;SDS011;2987;50.884;14.818;2022-07-03T08:47:42;1.60;;;1.50;;
5923;SDS011;2987;50.884;14.818;2022-07-03T08:50:13;4.00;;;1.40;;
5923;SDS011;2987;50.884;14.818;2022-07-03T08:52:41;2.10;;;1.43;;
5923;SDS011;2987;50.884;14.818;2022-07-03T08:55:08;1.57;;;1.47;;
5923;SDS011;2987;50.884;14.818;2022-07-03T08:57:36;1.73;;;1.63;;
5923;SDS011;2987;50.884;14.818;2022-07-03T09:00:04;1.93;;;1.33;;
5923;SDS011;2987;50.884;14.818;2022-07-03T09:02:33;4.60;;;1.47;;
5923;SDS011;2987;50.884;14.818;2022-07-03T09:05:00;1.63;;;1.40;;
5923;SDS011;2987;50.884;14.818;2022-07-03T09:07:30;2.67;;;1.20;;
5923;SDS011;2987;50.884;14.818;2022-07-03T09:10:00;1.50;;;1.40;;
5923;SDS011;2987;50.884;14.818;2022-07-03T09:12:29;2.17;;;1.50;;
5923;SDS011;2987;50.884;14.818;2022-07-03T09:14:58;1.77;;;1.67;;
5923;SDS011;2987;50.884;14.818;2022-07-03T09:17:25;2.27;;;1.37;;
5923;SDS011;2987;50.884;14.818;2022-07-03T09:19:53;2.57;;;1.20;;
5923;SDS011;2987;50.884;14.818;2022-07-03T09:22:21;1.53;;;1.37;;
5923;SDS011;2987;50.884;14.818;2022-07-03T09:24:51;1.90;;;1.67;;
5923;SDS011;2987;50.884;14.818;2022-07-03T09:27:19;3.17;;;1.53;;
5923;SDS011;2987;50.884;14.818;2022-07-03T09:29:50;1.87;;;1.57;;
5923;SDS011;2987;50.884;14.818;2022-07-03T09:32:21;1.77;;;1.47;;
5923;SDS011;2987;50.884;14.818;2022-07-03T09:34:49;1.57;;;1.47;;
5923;SDS011;2987;50.884;14.818;2022-07-03T09:37:28;2.10;;;1.50;;
5923;SDS011;2987;50.884;14.818;2022-07-03T09:39:57;1.97;;;1.50;;
5923;SDS011;2987;50.884;14.818;2022-07-03T09:42:24;2.67;;;1.50;;
5923;SDS011;2987;50.884;14.818;2022-07-03T09:44:50;4.47;;;1.70;;
5923;SDS011;2987;50.884;14.818;2022-07-03T09:47:22;2.70;;;1.60;;
5923;SDS011;2987;50.884;14.818;2022-07-03T09:49:52;4.40;;;1.80;;
5923;SDS011;2987;50.884;14.818;2022-07-03T09:54:59;1.80;;;1.70;;
5923;SDS011;2987;50.884;14.818;2022-07-03T09:57:40;1.73;;;1.63;;
5923;SDS011;2987;50.884;14.818;2022-07-03T10:00:10;1.73;;;1.63;;
5923;SDS011;2987;50.884;14.818;2022-07-03T10:07:57;2.53;;;1.50;;
5923;SDS011;2987;50.884;14.818;2022-07-03T10:10:26;2.13;;;1.80;;
5923;SDS011;2987;50.884;14.818;2022-07-03T10:15:21;2.20;;;1.67;;
5923;SDS011;2987;50.884;14.818;2022-07-03T10:17:50;1.97;;;1.63;;
5923;SDS011;2987;50.884;14.818;2022-07-03T10:20:23;5.30;;;1.80;;
5923;SDS011;2987;50.884;14.818;2022-07-03T10:23:00;1.73;;;1.63;;
5923;SDS011;2987;50.884;14.818;2022-07-03T10:25:29;2.00;;;1.80;;
5923;SDS011;2987;50.884;14.818;2022-07-03T10:27:57;1.60;;;1.50;;
5923;SDS011;2987;50.884;14.818;2022-07-03T10:30:24;1.93;;;1.70;;
5923;SDS011;2987;50.884;14.818;2022-07-03T10:32:53;2.83;;;1.60;;
5923;SDS011;2987;50.884;14.818;2022-07-03T10:35:38;1.77;;;1.50;;
5923;SDS011;2987;50.884;14.818;2022-07-03T10:38:11;2.10;;;1.60;;
5923;SDS011;2987;50.884;14.818;2022-07-03T10:46:49;4.83;;;1.60;;
5923;SDS011;2987;50.884;14.818;2022-07-03T10:49:16;1.80;;;1.70;;
5923;SDS011;2987;50.884;14.818;2022-07-03T10:54:20;2.77;;;1.70;;
5923;SDS011;2987;50.884;14.818;2022-07-03T10:57:04;3.03;;;1.60;;
5923;SDS011;2987;50.884;14.818;2022-07-03T11:02:27;1.83;;;1.63;;
5923;SDS011;2987;50.884;14.818;2022-07-03T11:05:12;2.63;;;1.60;;
5923;SDS011;2987;50.884;14.818;2022-07-03T11:08:02;1.87;;;1.57;;
5923;SDS011;2987;50.884;14.818;2022-07-03T11:10:31;1.60;;;1.50;;
5923;SDS011;2987;50.884;14.818;2022-07-03T11:12:59;3.80;;;1.40;;
5923;SDS011;2987;50.884;14.818;2022-07-03T11:15:30;1.53;;;1.43;;
5923;SDS011;2987;50.884;14.818;2022-07-03T11:18:07;2.47;;;1.83;;
5923;SDS011;2987;50.884;14.818;2022-07-03T11:20:37;3.23;;;1.60;;
5923;SDS011;2987;50.884;14.818;2022-07-03T11:23:33;4.50;;;1.90;;
5923;SDS011;2987;50.884;14.818;2022-07-03T11:26:22;5.77;;;1.80;;
5923;SDS011;2987;50.884;14.818;2022-07-03T11:28:50;2.70;;;1.50;;
5923;SDS011;2987;50.884;14.818;2022-07-03T11:31:21;2.60;;;1.60;;
5923;SDS011;2987;50.884;14.818;2022-07-03T11:33:57;1.73;;;1.63;;
5923;SDS011;2987;50.884;14.818;2022-07-03T11:36:26;3.03;;;1.60;;
5923;SDS011;2987;50.884;14.818;2022-07-03T11:41:42;10.03;;;4.53;;
5923;SDS011;2987;50.884;14.818;2022-07-03T11:44:10;2.37;;;2.10;;
5923;SDS011;2987;50.884;14.818;2022-07-03T11:46:41;3.90;;;3.60;;
5923;SDS011;2987;50.884;14.818;2022-07-03T11:49:14;1.80;;;1.70;;
5923;SDS011;2987;50.884;14.818;2022-07-03T11:51:43;1.53;;;1.43;;
5923;SDS011;2987;50.884;14.818;2022-07-03T11:54:19;2.43;;;1.50;;
5923;SDS011;2987;50.884;14.818;2022-07-03T11:56:46;8.57;;;7.47;;
5923;SDS011;2987;50.884;14.818;2022-07-03T11:59:12;1.90;;;1.80;;
5923;SDS011;2987;50.884;14.818;2022-07-03T12:01:40;1.90;;;1.67;;
5923;SDS011;2987;50.884;14.818;2022-07-03T12:04:08;2.00;;;1.40;;
5923;SDS011;2987;50.884;14.818;2022-07-03T12:07:00;3.47;;;3.10;;
5923;SDS011;2987;50.884;14.818;2022-07-03T12:09:28;4.17;;;1.60;;
5923;SDS011;2987;50.884;14.818;2022-07-03T12:12:00;2.07;;;1.53;;
5923;SDS011;2987;50.884;14.818;2022-07-03T12:20:07;2.00;;;1.80;;
5923;SDS011;2987;50.884;14.818;2022-07-03T12:22:35;2.20;;;1.70;;
5923;SDS011;2987;50.884;14.818;2022-07-03T12:27:40;2.40;;;1.50;;
5923;SDS011;2987;50.884;14.818;2022-07-03T12:30:10;1.97;;;1.63;;
5923;SDS011;2987;50.884;14.818;2022-07-03T12:32:44;4.27;;;1.67;;
5923;SDS011;2987;50.884;14.818;2022-07-03T12:35:11;1.90;;;1.80;;
5923;SDS011;2987;50.884;14.818;2022-07-03T12:37:38;15.60;;;14.07;;
5923;SDS011;2987;50.884;14.818;2022-07-03T12:40:07;8.93;;;6.37;;
5923;SDS011;2987;50.884;14.818;2022-07-03T12:48:06;1.90;;;1.50;;
5923;SDS011;2987;50.884;14.818;2022-07-03T12:50:50;2.90;;;2.70;;
5923;SDS011;2987;50.884;14.818;2022-07-03T12:55:59;6.37;;;1.90;;
5923;SDS011;2987;50.884;14.818;2022-07-03T13:01:39;2.57;;;1.63;;
5923;SDS011;2987;50.884;14.818;2022-07-03T13:04:05;3.90;;;1.77;;
5923;SDS011;2987;50.884;14.818;2022-07-03T13:06:36;1.67;;;1.57;;
5923;SDS011;2987;50.884;14.818;2022-07-03T13:11:54;1.73;;;1.63;;
5923;SDS011;2987;50.884;14.818;2022-07-03T13:14:26;2.13;;;1.80;;
5923;SDS011;2987;50.884;14.818;2022-07-03T13:16:53;1.63;;;1.50;;
5923;SDS011;2987;50.884;14.818;2022-07-03T13:19:25;1.73;;;1.63;;
5923;SDS011;2987;50.884;14.818;2022-07-03T13:21:53;3.33;;;1.90;;
5923;SDS011;2987;50.884;14.818;2022-07-03T13:24:21;1.67;;;1.57;;
5923;SDS011;2987;50.884;14.818;2022-07-03T13:26:49;3.03;;;1.50;;
5923;SDS011;2987;50.884;14.818;2022-07-03T13:29:17;2.63;;;1.50;;
5923;SDS011;2987;50.884;14.818;2022-07-03T13:31:44;1.80;;;1.70;;
5923;SDS011;2987;50.884;14.818;2022-07-03T13:34:10;2.73;;;1.57;;
5923;SDS011;2987;50.884;14.818;2022-07-03T13:36:37;2.17;;;1.77;;
5923;SDS011;2987;50.884;14.818;2022-07-03T13:39:03;2.63;;;1.73;;
5923;SDS011;2987;50.884;14.818;2022-07-03T13:41:29;3.23;;;1.70;;
5923;SDS011;2987;50.884;14.818;2022-07-03T13:43:55;1.80;;;1.70;;
5923;SDS011;2987;50.884;14.818;2022-07-03T13:46:22;2.30;;;1.80;;
5923;SDS011;2987;50.884;14.818;2022-07-03T13:48:49;2.93;;;1.83;;
5923;SDS011;2987;50.884;14.818;2022-07-03T13:51:16;4.30;;;1.70;;
5923;SDS011;2987;50.884;14.818;2022-07-03T13:53:43;2.67;;;1.80;;
5923;SDS011;2987;50.884;14.818;2022-07-03T13:56:10;1.77;;;1.43;;
5923;SDS011;2987;50.884;14.818;2022-07-03T13:58:36;1.93;;;1.73;;
5923;SDS011;2987;50.884;14.818;2022-07-03T14:01:03;1.80;;;1.70;;
5923;SDS011;2987;50.884;14.818;2022-07-03T14:03:29;1.83;;;1.73;;
5923;SDS011;2987;50.884;14.818;2022-07-03T14:05:55;2.13;;;1.90;;
5923;SDS011;2987;50.884;14.818;2022-07-03T14:08:22;1.90;;;1.80;;
5923;SDS011;2987;50.884;14.818;2022-07-03T14:10:49;9.13;;;2.10;;
5923;SDS011;2987;50.884;14.818;2022-07-03T14:13:15;2.07;;;1.87;;
5923;SDS011;2987;50.884;14.818;2022-07-03T14:15:42;2.03;;;1.80;;
5923;SDS011;2987;50.884;14.818;2022-07-03T14:18:08;2.50;;;1.70;;
5923;SDS011;2987;50.884;14.818;2022-07-03T14:20:35;2.73;;;1.87;;
5923;SDS011;2987;50.884;14.818;2022-07-03T14:23:01;2.00;;;1.80;;
5923;SDS011;2987;50.884;14.818;2022-07-03T14:25:27;2.13;;;1.87;;
5923;SDS011;2987;50.884;14.818;2022-07-03T14:27:54;2.33;;;1.80;;
5923;SDS011;2987;50.884;14.818;2022-07-03T14:30:41;1.83;;;1.70;;
5923;SDS011;2987;50.884;14.818;2022-07-03T14:33:31;1.97;;;1.83;;
5923;SDS011;2987;50.884;14.818;2022-07-03T14:35:58;2.50;;;2.00;;
5923;SDS011;2987;50.884;14.818;2022-07-03T14:38:24;2.37;;;2.00;;
5923;SDS011;2987;50.884;14.818;2022-07-03T14:40:51;3.53;;;1.87;;
5923;SDS011;2987;50.884;14.818;2022-07-03T14:43:24;3.23;;;1.70;;
5923;SDS011;2987;50.884;14.818;2022-07-03T14:45:50;6.53;;;1.73;;
5923;SDS011;2987;50.884;14.818;2022-07-03T14:48:17;2.77;;;1.83;;
5923;SDS011;2987;50.884;14.818;2022-07-03T14:50:43;2.93;;;1.80;;
5923;SDS011;2987;50.884;14.818;2022-07-03T14:53:10;2.40;;;2.20;;
5923;SDS011;2987;50.884;14.818;2022-07-03T14:55:38;3.27;;;1.80;;
5923;SDS011;2987;50.884;14.818;2022-07-03T14:58:21;2.03;;;1.93;;
5923;SDS011;2987;50.884;14.818;2022-07-03T15:00:54;3.10;;;2.07;;
5923;SDS011;2987;50.884;14.818;2022-07-03T15:03:30;2.03;;;1.90;;
5923;SDS011;2987;50.884;14.818;2022-07-03T15:05:59;1.97;;;1.87;;
5923;SDS011;2987;50.884;14.818;2022-07-03T15:08:40;2.17;;;1.90;;
5923;SDS011;2987;50.884;14.818;2022-07-03T15:11:14;3.10;;;1.80;;
5923;SDS011;2987;50.884;14.818;2022-07-03T15:14:06;2.00;;;1.90;;
5923;SDS011;2987;50.884;14.818;2022-07-03T15:16:33;2.97;;;1.80;;
5923;SDS011;2987;50.884;14.818;2022-07-03T15:19:00;2.10;;;1.90;;
5923;SDS011;2987;50.884;14.818;2022-07-03T15:21:29;3.00;;;2.17;;
5923;SDS011;2987;50.884;14.818;2022-07-03T15:24:01;5.00;;;2.20;;
5923;SDS011;2987;50.884;14.818;2022-07-03T15:26:29;2.60;;;2.33;;
5923;SDS011;2987;50.884;14.818;2022-07-03T15:28:58;2.90;;;2.20;;
5923;SDS011;2987;50.884;14.818;2022-07-03T15:31:26;2.40;;;1.80;;
5923;SDS011;2987;50.884;14.818;2022-07-03T15:33:54;2.00;;;1.90;;
5923;SDS011;2987;50.884;14.818;2022-07-03T15:36:24;2.57;;;2.20;;
5923;SDS011;2987;50.884;14.818;2022-07-03T15:38:58;2.10;;;2.00;;
5923;SDS011;2987;50.884;14.818;2022-07-03T15:44:29;2.30;;;2.10;;
5923;SDS011;2987;50.884;14.818;2022-07-03T15:52:18;2.40;;;2.20;;
5923;SDS011;2987;50.884;14.818;2022-07-03T15:54:54;4.00;;;2.17;;
5923;SDS011;2987;50.884;14.818;2022-07-03T15:59:57;2.23;;;1.93;;
5923;SDS011;2987;50.884;14.818;2022-07-03T16:02:26;3.33;;;2.30;;
5923;SDS011;2987;50.884;14.818;2022-07-03T16:05:04;2.30;;;2.10;;
5923;SDS011;2987;50.884;14.818;2022-07-03T16:07:37;2.90;;;2.20;;
5923;SDS011;2987;50.884;14.818;2022-07-03T16:10:06;2.33;;;2.23;;
5923;SDS011;2987;50.884;14.818;2022-07-03T16:12:34;2.50;;;2.20;;
5923;SDS011;2987;50.884;14.818;2022-07-03T16:15:03;3.13;;;2.10;;
5923;SDS011;2987;50.884;14.818;2022-07-03T16:17:32;4.77;;;2.20;;
5923;SDS011;2987;50.884;14.818;2022-07-03T16:20:00;2.10;;;2.00;;
5923;SDS011;2987;50.884;14.818;2022-07-03T16:22:28;2.80;;;2.20;;
5923;SDS011;2987;50.884;14.818;2022-07-03T16:24:58;2.40;;;2.20;;
5923;SDS011;2987;50.884;14.818;2022-07-03T16:27:28;2.83;;;2.17;;
5923;SDS011;2987;50.884;14.818;2022-07-03T16:29:55;2.50;;;2.10;;
5923;SDS011;2987;50.884;14.818;2022-07-03T16:32:24;2.50;;;2.30;;
5923;SDS011;2987;50.884;14.818;2022-07-03T16:37:54;6.87;;;2.00;;
5923;SDS011;2987;50.884;14.818;2022-07-03T16:40:33;3.40;;;2.37;;
5923;SDS011;2987;50.884;14.818;2022-07-03T16:48:08;4.47;;;2.03;;
5923;SDS011;2987;50.884;14.818;2022-07-03T16:50:39;3.47;;;1.90;;
5923;SDS011;2987;50.884;14.818;2022-07-03T16:53:17;2.10;;;2.00;;
5923;SDS011;2987;50.884;14.818;2022-07-03T16:55:45;2.63;;;2.20;;
5923;SDS011;2987;50.884;14.818;2022-07-03T16:58:12;2.57;;;2.00;;
5923;SDS011;2987;50.884;14.818;2022-07-03T17:00:40;2.93;;;2.10;;
5923;SDS011;2987;50.884;14.818;2022-07-03T17:03:08;1.97;;;1.87;;
5923;SDS011;2987;50.884;14.818;2022-07-03T17:05:36;2.40;;;2.20;;
5923;SDS011;2987;50.884;14.818;2022-07-03T17:08:02;5.30;;;2.20;;
5923;SDS011;2987;50.884;14.818;2022-07-03T17:10:28;3.37;;;2.30;;
5923;SDS011;2987;50.884;14.818;2022-07-03T17:12:57;2.00;;;1.90;;
5923;SDS011;2987;50.884;14.818;2022-07-03T17:15:32;2.30;;;1.87;;
5923;SDS011;2987;50.884;14.818;2022-07-03T17:18:02;2.70;;;2.00;;
5923;SDS011;2987;50.884;14.818;2022-07-03T17:20:33;2.27;;;2.17;;
5923;SDS011;2987;50.884;14.818;2022-07-03T17:23:07;2.60;;;2.13;;
5923;SDS011;2987;50.884;14.818;2022-07-03T17:25:52;2.40;;;2.20;;